sensor_id;sensor_type;location;lat;lon;timestamp;temperature;humidity
44647;DHT22;56315;-33.902;151.160;2023-03-12T00:00:32;33.90;99.90
44647;DHT22;56315;-33.902;151.160;2023-03-12T00:02:59;33.50;99.90
44647;DHT22;56315;-33.902;151.160;2023-03-12T00:05:26;33.40;99.90
44647;DHT22;56315;-33.902;151.160;2023-03-12T00:07:52;33.60;99.90
44647;DHT22;56315;-33.902;151.160;2023-03-12T00:10:19;33.70;99.90
44647;DHT22;56315;-33.902;151.160;2023-03-12T00:12:46;33.70;99.90
44647;DHT22;56315;-33.902;151.160;2023-03-12T00:15:12;33.20;99.90
44647;DHT22;56315;-33.902;151.160;2023-03-12T00:17:39;32.60;99.90
44647;DHT22;56315;-33.902;151.160;2023-03-12T00:20:06;32.20;99.90
44647;DHT22;56315;-33.902;151.160;2023-03-12T00:22:32;31.90;99.90
44647;DHT22;56315;-33.902;151.160;2023-03-12T00:24:59;31.50;99.90
44647;DHT22;56315;-33.902;151.160;2023-03-12T00:27:26;31.70;99.90
44647;DHT22;56315;-33.902;151.160;2023-03-12T00:29:53;32.00;99.90
44647;DHT22;56315;-33.902;151.160;2023-03-12T00:32:20;32.10;99.90
44647;DHT22;56315;-33.902;151.160;2023-03-12T00:34:50;32.50;99.90
44647;DHT22;56315;-33.902;151.160;2023-03-12T00:37:16;32.40;99.90
44647;DHT22;56315;-33.902;151.160;2023-03-12T00:39:43;32.40;99.90
44647;DHT22;56315;-33.902;151.160;2023-03-12T00:42:10;31.90;99.90
44647;DHT22;56315;-33.902;151.160;2023-03-12T00:44:36;31.50;99.90
44647;DHT22;56315;-33.902;151.160;2023-03-12T00:47:03;31.10;99.90
44647;DHT22;56315;-33.902;151.160;2023-03-12T00:49:29;30.90;99.90
44647;DHT22;56315;-33.902;151.160;2023-03-12T00:51:56;31.50;99.90
44647;DHT22;56315;-33.902;151.160;2023-03-12T00:54:23;31.50;99.90
44647;DHT22;56315;-33.902;151.160;2023-03-12T00:56:49;31.30;99.90
44647;DHT22;56315;-33.902;151.160;2023-03-12T00:59:16;31.00;99.90
44647;DHT22;56315;-33.902;151.160;2023-03-12T01:01:42;31.40;99.90
44647;DHT22;56315;-33.902;151.160;2023-03-12T01:04:09;32.20;99.90
44647;DHT22;56315;-33.902;151.160;2023-03-12T01:06:36;32.50;99.90
44647;DHT22;56315;-33.902;151.160;2023-03-12T01:09:04;32.50;99.90
44647;DHT22;56315;-33.902;151.160;2023-03-12T01:11:31;32.80;99.90
44647;DHT22;56315;-33.902;151.160;2023-03-12T01:13:58;33.00;99.90
44647;DHT22;56315;-33.902;151.160;2023-03-12T01:16:25;32.80;99.90
44647;DHT22;56315;-33.902;151.160;2023-03-12T01:18:58;33.00;99.90
44647;DHT22;56315;-33.902;151.160;2023-03-12T01:21:25;33.20;99.90
44647;DHT22;56315;-33.902;151.160;2023-03-12T01:23:52;32.30;99.90
44647;DHT22;56315;-33.902;151.160;2023-03-12T01:26:19;32.20;99.90
44647;DHT22;56315;-33.902;151.160;2023-03-12T01:28:46;31.90;99.90
44647;DHT22;56315;-33.902;151.160;2023-03-12T01:31:14;31.70;99.90
44647;DHT22;56315;-33.902;151.160;2023-03-12T01:33:41;31.50;99.90
44647;DHT22;56315;-33.902;151.160;2023-03-12T01:36:21;31.60;99.90
44647;DHT22;56315;-33.902;151.160;2023-03-12T01:38:49;31.70;99.90
44647;DHT22;56315;-33.902;151.160;2023-03-12T01:41:16;31.40;99.90
44647;DHT22;56315;-33.902;151.160;2023-03-12T01:43:42;30.90;99.90
44647;DHT22;56315;-33.902;151.160;2023-03-12T01:46:26;30.90;99.90
44647;DHT22;56315;-33.902;151.160;2023-03-12T01:49:04;31.00;99.90
44647;DHT22;56315;-33.902;151.160;2023-03-12T01:51:34;30.90;99.90
44647;DHT22;56315;-33.902;151.160;2023-03-12T01:54:04;31.10;99.90
44647;DHT22;56315;-33.902;151.160;2023-03-12T01:56:32;31.00;99.90
44647;DHT22;56315;-33.902;151.160;2023-03-12T01:59:02;31.10;99.90
44647;DHT22;56315;-33.902;151.160;2023-03-12T02:01:29;31.40;99.90
44647;DHT22;56315;-33.902;151.160;2023-03-12T02:03:57;31.40;99.90
44647;DHT22;56315;-33.902;151.160;2023-03-12T02:06:25;31.20;99.90
44647;DHT22;56315;-33.902;151.160;2023-03-12T02:08:54;31.30;99.90
44647;DHT22;56315;-33.902;151.160;2023-03-12T02:11:21;31.40;99.90
44647;DHT22;56315;-33.902;151.160;2023-03-12T02:13:48;31.60;99.90
44647;DHT22;56315;-33.902;151.160;2023-03-12T02:16:15;31.50;99.90
44647;DHT22;56315;-33.902;151.160;2023-03-12T02:18:41;31.60;99.90
44647;DHT22;56315;-33.902;151.160;2023-03-12T02:23:52;31.50;99.90
44647;DHT22;56315;-33.902;151.160;2023-03-12T02:26:20;31.60;99.90
44647;DHT22;56315;-33.902;151.160;2023-03-12T02:28:48;31.50;99.90
44647;DHT22;56315;-33.902;151.160;2023-03-12T02:31:17;30.80;99.90
44647;DHT22;56315;-33.902;151.160;2023-03-12T02:33:44;30.50;99.90
44647;DHT22;56315;-33.902;151.160;2023-03-12T02:36:11;30.70;99.90
44647;DHT22;56315;-33.902;151.160;2023-03-12T02:41:18;30.90;99.90
44647;DHT22;56315;-33.902;151.160;2023-03-12T02:43:46;31.00;99.90
44647;DHT22;56315;-33.902;151.160;2023-03-12T02:46:16;30.80;99.90
44647;DHT22;56315;-33.902;151.160;2023-03-12T02:48:44;30.50;99.90
44647;DHT22;56315;-33.902;151.160;2023-03-12T02:51:11;30.30;99.90
44647;DHT22;56315;-33.902;151.160;2023-03-12T02:53:38;30.60;99.90
44647;DHT22;56315;-33.902;151.160;2023-03-12T02:56:05;30.70;99.90
44647;DHT22;56315;-33.902;151.160;2023-03-12T02:58:32;30.90;99.90
44647;DHT22;56315;-33.902;151.160;2023-03-12T03:00:59;30.90;99.90
44647;DHT22;56315;-33.902;151.160;2023-03-12T03:03:26;31.10;99.90
44647;DHT22;56315;-33.902;151.160;2023-03-12T03:05:52;31.10;99.90
44647;DHT22;56315;-33.902;151.160;2023-03-12T03:08:19;31.00;99.90
44647;DHT22;56315;-33.902;151.160;2023-03-12T03:10:45;30.80;99.90
44647;DHT22;56315;-33.902;151.160;2023-03-12T03:13:12;30.50;99.90
44647;DHT22;56315;-33.902;151.160;2023-03-12T03:15:38;30.40;99.90
44647;DHT22;56315;-33.902;151.160;2023-03-12T03:18:05;30.50;99.90
44647;DHT22;56315;-33.902;151.160;2023-03-12T03:20:32;30.60;99.90
44647;DHT22;56315;-33.902;151.160;2023-03-12T03:22:58;30.50;99.90
44647;DHT22;56315;-33.902;151.160;2023-03-12T03:25:25;30.20;99.90
44647;DHT22;56315;-33.902;151.160;2023-03-12T03:27:52;30.20;99.90
44647;DHT22;56315;-33.902;151.160;2023-03-12T03:30:19;30.10;99.90
44647;DHT22;56315;-33.902;151.160;2023-03-12T03:32:47;30.20;99.90
44647;DHT22;56315;-33.902;151.160;2023-03-12T03:35:14;30.10;99.90
44647;DHT22;56315;-33.902;151.160;2023-03-12T03:37:40;29.90;99.90
44647;DHT22;56315;-33.902;151.160;2023-03-12T03:40:07;29.80;99.90
44647;DHT22;56315;-33.902;151.160;2023-03-12T03:42:37;29.80;99.90
44647;DHT22;56315;-33.902;151.160;2023-03-12T03:45:04;29.90;99.90
44647;DHT22;56315;-33.902;151.160;2023-03-12T03:47:31;29.90;99.90
44647;DHT22;56315;-33.902;151.160;2023-03-12T03:49:58;29.70;99.90
44647;DHT22;56315;-33.902;151.160;2023-03-12T03:52:24;29.30;99.90
44647;DHT22;56315;-33.902;151.160;2023-03-12T03:54:51;29.10;99.90
44647;DHT22;56315;-33.902;151.160;2023-03-12T03:57:19;29.00;99.90
44647;DHT22;56315;-33.902;151.160;2023-03-12T03:59:45;28.80;99.90
44647;DHT22;56315;-33.902;151.160;2023-03-12T04:02:12;28.80;99.90
44647;DHT22;56315;-33.902;151.160;2023-03-12T04:04:38;29.00;99.90
44647;DHT22;56315;-33.902;151.160;2023-03-12T04:07:05;29.10;99.90
44647;DHT22;56315;-33.902;151.160;2023-03-12T04:09:32;29.00;99.90
44647;DHT22;56315;-33.902;151.160;2023-03-12T04:11:58;28.90;99.90
44647;DHT22;56315;-33.902;151.160;2023-03-12T04:14:25;28.90;99.90
44647;DHT22;56315;-33.902;151.160;2023-03-12T04:16:51;28.90;99.90
44647;DHT22;56315;-33.902;151.160;2023-03-12T04:19:18;29.00;99.90
44647;DHT22;56315;-33.902;151.160;2023-03-12T04:21:45;29.10;99.90
44647;DHT22;56315;-33.902;151.160;2023-03-12T04:24:15;29.10;99.90
44647;DHT22;56315;-33.902;151.160;2023-03-12T04:26:42;29.10;99.90
44647;DHT22;56315;-33.902;151.160;2023-03-12T04:29:09;28.90;99.90
44647;DHT22;56315;-33.902;151.160;2023-03-12T04:31:35;28.70;99.90
44647;DHT22;56315;-33.902;151.160;2023-03-12T04:34:02;28.60;99.90
44647;DHT22;56315;-33.902;151.160;2023-03-12T04:36:28;28.70;99.90
44647;DHT22;56315;-33.902;151.160;2023-03-12T04:38:55;28.70;99.90
44647;DHT22;56315;-33.902;151.160;2023-03-12T04:41:22;28.70;99.90
44647;DHT22;56315;-33.902;151.160;2023-03-12T04:43:49;28.60;99.90
44647;DHT22;56315;-33.902;151.160;2023-03-12T04:46:16;28.40;99.90
44647;DHT22;56315;-33.902;151.160;2023-03-12T04:48:43;28.20;99.90
44647;DHT22;56315;-33.902;151.160;2023-03-12T04:51:10;28.00;99.90
44647;DHT22;56315;-33.902;151.160;2023-03-12T04:53:36;27.90;99.90
44647;DHT22;56315;-33.902;151.160;2023-03-12T04:56:05;27.70;99.90
44647;DHT22;56315;-33.902;151.160;2023-03-12T04:58:31;27.60;99.90
44647;DHT22;56315;-33.902;151.160;2023-03-12T05:00:58;27.50;99.90
44647;DHT22;56315;-33.902;151.160;2023-03-12T05:03:25;27.40;99.90
44647;DHT22;56315;-33.902;151.160;2023-03-12T05:05:51;27.40;99.90
44647;DHT22;56315;-33.902;151.160;2023-03-12T05:08:18;27.20;99.90
44647;DHT22;56315;-33.902;151.160;2023-03-12T05:10:45;27.20;99.90
44647;DHT22;56315;-33.902;151.160;2023-03-12T05:13:15;27.30;99.90
44647;DHT22;56315;-33.902;151.160;2023-03-12T05:15:42;27.20;99.90
44647;DHT22;56315;-33.902;151.160;2023-03-12T05:18:08;27.20;99.90
44647;DHT22;56315;-33.902;151.160;2023-03-12T05:20:35;27.20;99.90
44647;DHT22;56315;-33.902;151.160;2023-03-12T05:23:02;27.20;99.90
44647;DHT22;56315;-33.902;151.160;2023-03-12T05:25:28;27.20;99.90
44647;DHT22;56315;-33.902;151.160;2023-03-12T05:27:55;27.10;99.90
44647;DHT22;56315;-33.902;151.160;2023-03-12T05:30:21;27.10;99.90
44647;DHT22;56315;-33.902;151.160;2023-03-12T05:32:48;27.00;99.90
44647;DHT22;56315;-33.902;151.160;2023-03-12T05:35:15;27.00;99.90
44647;DHT22;56315;-33.902;151.160;2023-03-12T05:37:41;26.90;99.90
44647;DHT22;56315;-33.902;151.160;2023-03-12T05:40:09;26.90;99.90
44647;DHT22;56315;-33.902;151.160;2023-03-12T05:42:36;26.80;99.90
44647;DHT22;56315;-33.902;151.160;2023-03-12T05:45:03;26.70;99.90
44647;DHT22;56315;-33.902;151.160;2023-03-12T05:47:29;26.70;99.90
44647;DHT22;56315;-33.902;151.160;2023-03-12T05:49:56;26.70;99.90
44647;DHT22;56315;-33.902;151.160;2023-03-12T05:52:23;26.60;99.90
44647;DHT22;56315;-33.902;151.160;2023-03-12T05:54:50;26.50;99.90
44647;DHT22;56315;-33.902;151.160;2023-03-12T05:57:17;26.30;99.90
44647;DHT22;56315;-33.902;151.160;2023-03-12T05:59:44;26.20;99.90
44647;DHT22;56315;-33.902;151.160;2023-03-12T06:02:10;26.10;99.90
44647;DHT22;56315;-33.902;151.160;2023-03-12T06:04:37;26.10;99.90
44647;DHT22;56315;-33.902;151.160;2023-03-12T06:07:03;26.00;99.90
44647;DHT22;56315;-33.902;151.160;2023-03-12T06:09:30;25.90;99.90
44647;DHT22;56315;-33.902;151.160;2023-03-12T06:11:57;25.90;99.90
44647;DHT22;56315;-33.902;151.160;2023-03-12T06:14:23;25.80;99.90
44647;DHT22;56315;-33.902;151.160;2023-03-12T06:16:50;25.90;99.90
44647;DHT22;56315;-33.902;151.160;2023-03-12T06:19:17;25.90;99.90
44647;DHT22;56315;-33.902;151.160;2023-03-12T06:21:43;25.80;99.90
44647;DHT22;56315;-33.902;151.160;2023-03-12T06:24:10;25.80;99.90
44647;DHT22;56315;-33.902;151.160;2023-03-12T06:26:37;25.80;99.90
44647;DHT22;56315;-33.902;151.160;2023-03-12T06:29:03;25.90;99.90
44647;DHT22;56315;-33.902;151.160;2023-03-12T06:31:30;25.90;99.90
44647;DHT22;56315;-33.902;151.160;2023-03-12T06:33:56;26.00;99.90
44647;DHT22;56315;-33.902;151.160;2023-03-12T06:36:23;25.90;99.90
44647;DHT22;56315;-33.902;151.160;2023-03-12T06:38:50;25.90;99.90
44647;DHT22;56315;-33.902;151.160;2023-03-12T06:41:17;25.80;99.90
44647;DHT22;56315;-33.902;151.160;2023-03-12T06:43:44;25.80;99.90
44647;DHT22;56315;-33.902;151.160;2023-03-12T06:46:14;25.70;99.90
44647;DHT22;56315;-33.902;151.160;2023-03-12T06:48:44;25.70;99.90
44647;DHT22;56315;-33.902;151.160;2023-03-12T06:51:13;25.60;99.90
44647;DHT22;56315;-33.902;151.160;2023-03-12T06:53:40;25.60;99.90
44647;DHT22;56315;-33.902;151.160;2023-03-12T06:56:10;25.60;99.90
44647;DHT22;56315;-33.902;151.160;2023-03-12T06:58:38;25.50;99.90
44647;DHT22;56315;-33.902;151.160;2023-03-12T07:01:07;25.50;99.90
44647;DHT22;56315;-33.902;151.160;2023-03-12T07:03:33;25.40;99.90
44647;DHT22;56315;-33.902;151.160;2023-03-12T07:06:00;25.30;99.90
44647;DHT22;56315;-33.902;151.160;2023-03-12T07:08:27;25.40;99.90
44647;DHT22;56315;-33.902;151.160;2023-03-12T07:10:57;25.30;99.90
44647;DHT22;56315;-33.902;151.160;2023-03-12T07:13:28;25.30;99.90
44647;DHT22;56315;-33.902;151.160;2023-03-12T07:15:55;25.20;99.90
44647;DHT22;56315;-33.902;151.160;2023-03-12T07:18:22;25.20;99.90
44647;DHT22;56315;-33.902;151.160;2023-03-12T07:20:48;25.10;99.90
44647;DHT22;56315;-33.902;151.160;2023-03-12T07:23:15;25.10;99.90
44647;DHT22;56315;-33.902;151.160;2023-03-12T07:25:42;25.10;99.90
44647;DHT22;56315;-33.902;151.160;2023-03-12T07:28:09;25.20;99.90
44647;DHT22;56315;-33.902;151.160;2023-03-12T07:30:36;25.20;99.90
44647;DHT22;56315;-33.902;151.160;2023-03-12T07:33:04;25.20;99.90
44647;DHT22;56315;-33.902;151.160;2023-03-12T07:35:30;25.10;99.90
44647;DHT22;56315;-33.902;151.160;2023-03-12T07:37:58;25.10;99.90
44647;DHT22;56315;-33.902;151.160;2023-03-12T07:40:24;25.00;99.90
44647;DHT22;56315;-33.902;151.160;2023-03-12T07:42:51;24.90;99.90
44647;DHT22;56315;-33.902;151.160;2023-03-12T07:45:18;24.90;99.90
44647;DHT22;56315;-33.902;151.160;2023-03-12T07:47:45;24.90;99.90
44647;DHT22;56315;-33.902;151.160;2023-03-12T07:50:12;24.80;99.90
44647;DHT22;56315;-33.902;151.160;2023-03-12T07:52:38;24.70;99.90
44647;DHT22;56315;-33.902;151.160;2023-03-12T07:55:05;24.70;99.90
44647;DHT22;56315;-33.902;151.160;2023-03-12T07:57:32;24.70;99.90
44647;DHT22;56315;-33.902;151.160;2023-03-12T07:59:59;24.70;99.90
44647;DHT22;56315;-33.902;151.160;2023-03-12T08:02:25;24.70;99.90
44647;DHT22;56315;-33.902;151.160;2023-03-12T08:04:52;24.60;99.90
44647;DHT22;56315;-33.902;151.160;2023-03-12T08:07:18;24.60;99.90
44647;DHT22;56315;-33.902;151.160;2023-03-12T08:09:45;24.50;99.90
44647;DHT22;56315;-33.902;151.160;2023-03-12T08:12:13;24.50;99.90
44647;DHT22;56315;-33.902;151.160;2023-03-12T08:14:40;24.50;99.90
44647;DHT22;56315;-33.902;151.160;2023-03-12T08:17:07;24.50;99.90
44647;DHT22;56315;-33.902;151.160;2023-03-12T08:19:33;24.50;99.90
44647;DHT22;56315;-33.902;151.160;2023-03-12T08:22:00;24.50;99.90
44647;DHT22;56315;-33.902;151.160;2023-03-12T08:24:27;24.50;99.90
44647;DHT22;56315;-33.902;151.160;2023-03-12T08:26:53;24.40;99.90
44647;DHT22;56315;-33.902;151.160;2023-03-12T08:29:20;24.30;99.90
44647;DHT22;56315;-33.902;151.160;2023-03-12T08:31:47;24.30;99.90
44647;DHT22;56315;-33.902;151.160;2023-03-12T08:34:14;24.20;99.90
44647;DHT22;56315;-33.902;151.160;2023-03-12T08:36:40;24.10;99.90
44647;DHT22;56315;-33.902;151.160;2023-03-12T08:39:07;24.10;99.90
44647;DHT22;56315;-33.902;151.160;2023-03-12T08:41:34;24.10;99.90
44647;DHT22;56315;-33.902;151.160;2023-03-12T08:44:00;24.10;99.90
44647;DHT22;56315;-33.902;151.160;2023-03-12T08:46:27;24.00;99.90
44647;DHT22;56315;-33.902;151.160;2023-03-12T08:48:54;24.00;99.90
44647;DHT22;56315;-33.902;151.160;2023-03-12T08:51:21;23.90;99.90
44647;DHT22;56315;-33.902;151.160;2023-03-12T08:53:47;23.90;99.90
44647;DHT22;56315;-33.902;151.160;2023-03-12T08:56:14;23.90;99.90
44647;DHT22;56315;-33.902;151.160;2023-03-12T08:58:40;23.90;99.90
44647;DHT22;56315;-33.902;151.160;2023-03-12T09:01:08;23.90;99.90
44647;DHT22;56315;-33.902;151.160;2023-03-12T09:03:35;23.90;99.90
44647;DHT22;56315;-33.902;151.160;2023-03-12T09:06:06;23.90;99.90
44647;DHT22;56315;-33.902;151.160;2023-03-12T09:08:35;24.00;99.90
44647;DHT22;56315;-33.902;151.160;2023-03-12T09:11:02;23.90;99.90
44647;DHT22;56315;-33.902;151.160;2023-03-12T09:13:28;23.90;99.90
44647;DHT22;56315;-33.902;151.160;2023-03-12T09:15:58;23.80;99.90
44647;DHT22;56315;-33.902;151.160;2023-03-12T09:18:25;23.80;99.90
44647;DHT22;56315;-33.902;151.160;2023-03-12T09:20:52;23.70;99.90
44647;DHT22;56315;-33.902;151.160;2023-03-12T09:23:19;23.70;99.90
44647;DHT22;56315;-33.902;151.160;2023-03-12T09:25:46;23.70;99.90
44647;DHT22;56315;-33.902;151.160;2023-03-12T09:28:13;23.60;99.90
44647;DHT22;56315;-33.902;151.160;2023-03-12T09:30:39;23.60;99.90
44647;DHT22;56315;-33.902;151.160;2023-03-12T09:33:07;23.60;99.90
44647;DHT22;56315;-33.902;151.160;2023-03-12T09:35:34;23.60;99.90
44647;DHT22;56315;-33.902;151.160;2023-03-12T09:38:01;23.60;99.90
44647;DHT22;56315;-33.902;151.160;2023-03-12T09:40:30;23.60;99.90
44647;DHT22;56315;-33.902;151.160;2023-03-12T09:42:58;23.60;99.90
44647;DHT22;56315;-33.902;151.160;2023-03-12T09:45:27;23.60;99.90
44647;DHT22;56315;-33.902;151.160;2023-03-12T09:47:56;23.50;99.90
44647;DHT22;56315;-33.902;151.160;2023-03-12T09:50:32;23.50;99.90
44647;DHT22;56315;-33.902;151.160;2023-03-12T09:53:01;23.50;99.90
44647;DHT22;56315;-33.902;151.160;2023-03-12T09:55:31;23.50;99.90
44647;DHT22;56315;-33.902;151.160;2023-03-12T09:58:00;23.50;99.90
44647;DHT22;56315;-33.902;151.160;2023-03-12T10:00:31;23.60;99.90
44647;DHT22;56315;-33.902;151.160;2023-03-12T10:03:08;23.50;99.90
44647;DHT22;56315;-33.902;151.160;2023-03-12T10:05:42;23.50;99.90
44647;DHT22;56315;-33.902;151.160;2023-03-12T10:10:51;23.50;99.90
44647;DHT22;56315;-33.902;151.160;2023-03-12T10:18:41;23.40;99.90
44647;DHT22;56315;-33.902;151.160;2023-03-12T10:21:33;23.40;99.90
44647;DHT22;56315;-33.902;151.160;2023-03-12T10:24:06;23.40;99.90
44647;DHT22;56315;-33.902;151.160;2023-03-12T10:26:42;23.30;99.90
44647;DHT22;56315;-33.902;151.160;2023-03-12T10:31:39;23.30;99.90
44647;DHT22;56315;-33.902;151.160;2023-03-12T10:34:19;23.30;99.90
44647;DHT22;56315;-33.902;151.160;2023-03-12T10:36:47;23.30;99.90
44647;DHT22;56315;-33.902;151.160;2023-03-12T10:39:16;23.40;99.90
44647;DHT22;56315;-33.902;151.160;2023-03-12T10:41:44;23.40;99.90
44647;DHT22;56315;-33.902;151.160;2023-03-12T10:44:20;23.40;99.90
44647;DHT22;56315;-33.902;151.160;2023-03-12T10:47:09;23.40;99.90
44647;DHT22;56315;-33.902;151.160;2023-03-12T10:49:38;23.40;99.90
44647;DHT22;56315;-33.902;151.160;2023-03-12T10:52:15;23.40;99.90
44647;DHT22;56315;-33.902;151.160;2023-03-12T10:54:43;23.30;99.90
44647;DHT22;56315;-33.902;151.160;2023-03-12T10:57:12;23.30;99.90
44647;DHT22;56315;-33.902;151.160;2023-03-12T10:59:41;23.40;99.90
44647;DHT22;56315;-33.902;151.160;2023-03-12T11:04:53;23.30;99.90
44647;DHT22;56315;-33.902;151.160;2023-03-12T11:09:51;23.30;99.90
44647;DHT22;56315;-33.902;151.160;2023-03-12T11:12:28;23.30;99.90
44647;DHT22;56315;-33.902;151.160;2023-03-12T11:14:56;23.30;99.90
44647;DHT22;56315;-33.902;151.160;2023-03-12T11:17:24;23.30;99.90
44647;DHT22;56315;-33.902;151.160;2023-03-12T11:19:50;23.30;99.90
44647;DHT22;56315;-33.902;151.160;2023-03-12T11:22:31;23.30;99.90
44647;DHT22;56315;-33.902;151.160;2023-03-12T11:25:02;23.20;99.90
44647;DHT22;56315;-33.902;151.160;2023-03-12T11:27:40;23.20;99.90
44647;DHT22;56315;-33.902;151.160;2023-03-12T11:30:11;23.20;99.90
44647;DHT22;56315;-33.902;151.160;2023-03-12T11:32:40;23.20;99.90
44647;DHT22;56315;-33.902;151.160;2023-03-12T11:35:08;23.20;99.90
44647;DHT22;56315;-33.902;151.160;2023-03-12T11:48:24;23.20;99.90
44647;DHT22;56315;-33.902;151.160;2023-03-12T12:03:59;23.20;99.90
44647;DHT22;56315;-33.902;151.160;2023-03-12T12:11:39;23.20;99.90
44647;DHT22;56315;-33.902;151.160;2023-03-12T12:16:57;23.10;99.90
44647;DHT22;56315;-33.902;151.160;2023-03-12T12:19:32;23.20;99.90
44647;DHT22;56315;-33.902;151.160;2023-03-12T12:32:00;23.10;99.90
44647;DHT22;56315;-33.902;151.160;2023-03-12T12:37:40;23.00;99.90
44647;DHT22;56315;-33.902;151.160;2023-03-12T12:40:16;23.10;99.90
44647;DHT22;56315;-33.902;151.160;2023-03-12T12:42:58;23.10;99.90
44647;DHT22;56315;-33.902;151.160;2023-03-12T12:45:27;23.10;99.90
44647;DHT22;56315;-33.902;151.160;2023-03-12T12:48:13;23.10;99.90
44647;DHT22;56315;-33.902;151.160;2023-03-12T12:50:42;23.10;99.90
44647;DHT22;56315;-33.902;151.160;2023-03-12T12:55:48;23.10;99.90
44647;DHT22;56315;-33.902;151.160;2023-03-12T12:58:20;23.10;99.90
44647;DHT22;56315;-33.902;151.160;2023-03-12T13:00:49;23.10;99.90
44647;DHT22;56315;-33.902;151.160;2023-03-12T13:03:17;23.10;99.90
44647;DHT22;56315;-33.902;151.160;2023-03-12T13:05:58;23.10;99.90
44647;DHT22;56315;-33.902;151.160;2023-03-12T13:13:47;23.10;99.90
44647;DHT22;56315;-33.902;151.160;2023-03-12T13:16:19;23.10;99.90
44647;DHT22;56315;-33.902;151.160;2023-03-12T13:31:58;22.90;99.90
44647;DHT22;56315;-33.902;151.160;2023-03-12T13:36:52;22.80;99.90
44647;DHT22;56315;-33.902;151.160;2023-03-12T13:39:27;22.90;99.90
44647;DHT22;56315;-33.902;151.160;2023-03-12T13:41:54;22.80;99.90
44647;DHT22;56315;-33.902;151.160;2023-03-12T13:49:20;22.80;99.90
44647;DHT22;56315;-33.902;151.160;2023-03-12T13:51:54;22.70;99.90
44647;DHT22;56315;-33.902;151.160;2023-03-12T13:54:22;22.70;99.90
44647;DHT22;56315;-33.902;151.160;2023-03-12T13:56:57;22.70;99.90
44647;DHT22;56315;-33.902;151.160;2023-03-12T13:59:25;22.70;99.90
44647;DHT22;56315;-33.902;151.160;2023-03-12T14:01:56;22.60;99.90
44647;DHT22;56315;-33.902;151.160;2023-03-12T14:04:29;22.60;99.90
44647;DHT22;56315;-33.902;151.160;2023-03-12T14:17:23;22.60;99.90
44647;DHT22;56315;-33.902;151.160;2023-03-12T14:19:51;22.50;99.90
44647;DHT22;56315;-33.902;151.160;2023-03-12T14:22:21;22.60;99.90
44647;DHT22;56315;-33.902;151.160;2023-03-12T14:24:50;22.60;99.90
44647;DHT22;56315;-33.902;151.160;2023-03-12T14:27:26;22.60;99.90
44647;DHT22;56315;-33.902;151.160;2023-03-12T14:29:56;22.60;99.90
44647;DHT22;56315;-33.902;151.160;2023-03-12T14:32:25;22.60;99.90
44647;DHT22;56315;-33.902;151.160;2023-03-12T14:34:57;22.60;99.90
44647;DHT22;56315;-33.902;151.160;2023-03-12T14:37:31;22.50;99.90
44647;DHT22;56315;-33.902;151.160;2023-03-12T14:40:02;22.50;99.90
44647;DHT22;56315;-33.902;151.160;2023-03-12T14:42:31;22.50;99.90
44647;DHT22;56315;-33.902;151.160;2023-03-12T14:44:59;22.40;99.90
44647;DHT22;56315;-33.902;151.160;2023-03-12T14:47:26;22.50;99.90
44647;DHT22;56315;-33.902;151.160;2023-03-12T14:49:54;22.50;99.90
44647;DHT22;56315;-33.902;151.160;2023-03-12T14:52:25;22.60;99.90
44647;DHT22;56315;-33.902;151.160;2023-03-12T14:54:57;22.60;99.90
44647;DHT22;56315;-33.902;151.160;2023-03-12T14:57:25;22.60;99.90
44647;DHT22;56315;-33.902;151.160;2023-03-12T14:59:58;22.60;99.90
44647;DHT22;56315;-33.902;151.160;2023-03-12T15:02:26;22.60;99.90
44647;DHT22;56315;-33.902;151.160;2023-03-12T15:04:53;22.50;99.90
44647;DHT22;56315;-33.902;151.160;2023-03-12T15:07:23;22.50;99.90
44647;DHT22;56315;-33.902;151.160;2023-03-12T15:09:51;22.50;99.90
44647;DHT22;56315;-33.902;151.160;2023-03-12T15:12:19;22.50;99.90
44647;DHT22;56315;-33.902;151.160;2023-03-12T15:14:46;22.50;99.90
44647;DHT22;56315;-33.902;151.160;2023-03-12T15:17:15;22.50;99.90
44647;DHT22;56315;-33.902;151.160;2023-03-12T15:19:42;22.60;99.90
44647;DHT22;56315;-33.902;151.160;2023-03-12T15:22:10;22.60;99.90
44647;DHT22;56315;-33.902;151.160;2023-03-12T15:24:38;22.60;99.90
44647;DHT22;56315;-33.902;151.160;2023-03-12T15:27:47;22.70;99.90
44647;DHT22;56315;-33.902;151.160;2023-03-12T15:29:55;22.70;99.90
44647;DHT22;56315;-33.902;151.160;2023-03-12T15:32:22;22.80;99.90
44647;DHT22;56315;-33.902;151.160;2023-03-12T15:34:52;22.80;99.90
44647;DHT22;56315;-33.902;151.160;2023-03-12T15:37:23;22.80;99.90
44647;DHT22;56315;-33.902;151.160;2023-03-12T15:40:24;22.80;99.90
44647;DHT22;56315;-33.902;151.160;2023-03-12T15:42:51;22.90;99.90
44647;DHT22;56315;-33.902;151.160;2023-03-12T15:45:24;22.90;99.90
44647;DHT22;56315;-33.902;151.160;2023-03-12T15:47:52;22.90;99.90
44647;DHT22;56315;-33.902;151.160;2023-03-12T15:53:03;22.80;99.90
44647;DHT22;56315;-33.902;151.160;2023-03-12T15:55:34;22.80;99.90
44647;DHT22;56315;-33.902;151.160;2023-03-12T15:58:00;22.70;99.90
44647;DHT22;56315;-33.902;151.160;2023-03-12T16:00:28;22.60;99.90
44647;DHT22;56315;-33.902;151.160;2023-03-12T16:02:59;22.60;99.90
44647;DHT22;56315;-33.902;151.160;2023-03-12T16:05:29;22.50;99.90
44647;DHT22;56315;-33.902;151.160;2023-03-12T16:08:01;22.50;99.90
44647;DHT22;56315;-33.902;151.160;2023-03-12T16:10:36;22.40;99.90
44647;DHT22;56315;-33.902;151.160;2023-03-12T16:13:03;22.30;99.90
44647;DHT22;56315;-33.902;151.160;2023-03-12T16:15:31;22.30;99.90
44647;DHT22;56315;-33.902;151.160;2023-03-12T16:17:58;22.30;99.90
44647;DHT22;56315;-33.902;151.160;2023-03-12T16:20:25;22.30;99.90
44647;DHT22;56315;-33.902;151.160;2023-03-12T16:22:52;22.30;99.90
44647;DHT22;56315;-33.902;151.160;2023-03-12T16:25:18;22.30;99.90
44647;DHT22;56315;-33.902;151.160;2023-03-12T16:27:46;22.30;99.90
44647;DHT22;56315;-33.902;151.160;2023-03-12T16:30:34;22.40;99.90
44647;DHT22;56315;-33.902;151.160;2023-03-12T16:33:02;22.30;99.90
44647;DHT22;56315;-33.902;151.160;2023-03-12T16:35:30;22.30;99.90
44647;DHT22;56315;-33.902;151.160;2023-03-12T16:38:00;22.30;99.90
44647;DHT22;56315;-33.902;151.160;2023-03-12T16:40:30;22.30;99.90
44647;DHT22;56315;-33.902;151.160;2023-03-12T16:42:58;22.30;99.90